Time;durP1;ratioP1;P1;durP2;ratioP2;P2;SDS_P1;SDS_P2;PMS_P1;PMS_P2;Temp;Humidity;BMP_temperature;BMP_pressure;BME280_temperature;BME280_humidity;BME280_pressure;Samples;Min_cycle;Max_cycle;Signal;HPM_P1;HPM_P2
2023/08/15 08:10:43;;;;;;;6.07;3.57;;;21.90;99.90;;;;;;1892955;74;27006;-88
2023/08/15 08:16:23;;;;;;;5.33;3.10;;;22.10;99.90;;;;;;1936306;72;26973;-88
2023/08/15 08:19:11;;;;;;;9.97;3.27;;;22.00;99.90;;;;;;1911059;74;25699;-88
2023/08/15 08:22:00;;;;;;;8.47;3.20;;;21.80;99.90;;;;;;1891629;75;26567;-88
2023/08/15 08:25:13;;;;;;;7.93;3.13;;;22.30;99.90;;;;;;1890483;75;25352;-88
2023/08/15 08:28:03;;;;;;;6.80;2.77;;;22.40;99.90;;;;;;1897933;75;25951;-88
2023/08/15 08:30:54;;;;;;;8.37;3.10;;;22.60;99.90;;;;;;1905833;75;25695;-88
2023/08/15 08:33:44;;;;;;;6.43;3.17;;;22.70;99.90;;;;;;1903595;75;25672;-88
2023/08/15 08:36:35;;;;;;;9.00;3.20;;;22.60;99.90;;;;;;1891106;75;25275;-89
2023/08/15 08:39:24;;;;;;;10.10;3.33;;;22.60;99.90;;;;;;1899370;75;25388;-88
2023/08/15 08:45:07;;;;;;;8.07;3.80;;;22.60;99.90;;;;;;1946724;72;26942;-88
2023/08/15 08:47:58;;;;;;;6.73;3.10;;;22.80;99.90;;;;;;1929824;73;25321;-89
2023/08/15 08:50:48;;;;;;;9.47;3.37;;;22.90;99.90;;;;;;1921003;73;25226;-88
2023/08/15 08:53:37;;;;;;;5.03;3.00;;;23.20;99.90;;;;;;1912818;74;25168;-88
2023/08/15 08:56:32;;;;;;;9.43;3.27;;;23.30;99.90;;;;;;1900780;75;25262;-88
2023/08/15 09:12:51;;;;;;;8.43;3.30;;;22.20;99.90;;;;;;1917937;72;27056;-88
2023/08/15 09:15:41;;;;;;;8.87;3.47;;;23.00;99.90;;;;;;1920290;72;25203;-90
2023/08/15 09:18:33;;;;;;;9.20;3.13;;;23.50;99.90;;;;;;1965648;71;25314;-90
2023/08/15 09:25:11;;;;;;;8.03;3.20;;;23.10;99.90;;;;;;1945939;72;26346;-88
2023/08/15 09:28:03;;;;;;;5.93;3.07;;;22.80;99.90;;;;;;1907552;75;25761;-88
2023/08/15 09:30:59;;;;;;;8.63;3.20;;;23.40;99.90;;;;;;1902166;73;25317;-89
2023/08/15 09:33:45;;;;;;;7.77;3.10;;;23.50;99.90;;;;;;1910123;75;25302;-88
2023/08/15 09:36:34;;;;;;;5.83;3.07;;;23.40;99.90;;;;;;1902495;75;25250;-88
2023/08/15 09:42:38;;;;;;;6.47;3.10;;;23.50;99.90;;;;;;1984851;71;27136;-88
2023/08/15 09:48:19;;;;;;;6.57;3.10;;;23.70;99.90;;;;;;1945434;72;27033;-87
2023/08/15 09:51:11;;;;;;;5.60;3.13;;;23.60;99.90;;;;;;1929484;73;25226;-88
2023/08/15 09:54:03;;;;;;;9.80;3.53;;;23.40;99.90;;;;;;1919052;73;25190;-89
2023/08/15 09:56:52;;;;;;;6.13;2.97;;;23.50;99.90;;;;;;1916409;75;25258;-88
2023/08/15 10:02:25;;;;;;;8.00;2.80;;;23.90;99.90;;;;;;1929193;72;27186;-89
2023/08/15 10:05:17;;;;;;;7.00;3.30;;;24.00;99.90;;;;;;1891916;75;25720;-88
2023/08/15 10:08:07;;;;;;;7.13;3.00;;;24.00;99.90;;;;;;1855695;76;25319;-89
2023/08/15 10:10:59;;;;;;;6.47;3.17;;;23.70;99.90;;;;;;1883052;74;25222;-88
2023/08/15 10:13:50;;;;;;;10.47;3.60;;;23.80;99.90;;;;;;1855578;76;25732;-88
2023/08/15 10:16:40;;;;;;;8.67;3.30;;;24.10;99.90;;;;;;1813726;77;25239;-88
2023/08/15 10:19:32;;;;;;;10.03;3.30;;;24.20;99.90;;;;;;1897177;74;25247;-88
2023/08/15 10:22:23;;;;;;;6.27;3.07;;;24.00;99.90;;;;;;1898024;75;25800;-88
2023/08/15 10:25:25;;;;;;;7.30;3.40;;;24.00;99.90;;;;;;1874546;76;25350;-88
2023/08/15 10:28:14;;;;;;;5.37;2.80;;;23.80;99.90;;;;;;1849126;76;25711;-89
2023/08/15 10:31:04;;;;;;;16.83;3.57;;;23.60;99.90;;;;;;1824875;77;25308;-88
2023/08/15 10:36:34;;;;;;;6.50;2.97;;;22.90;99.90;;;;;;1943585;72;27136;-88
2023/08/15 10:39:22;;;;;;;5.47;3.10;;;22.70;99.90;;;;;;1943319;72;25698;-88
2023/08/15 10:42:11;;;;;;;12.93;3.30;;;22.80;99.90;;;;;;1919234;72;25772;-88
2023/08/15 10:45:03;;;;;;;10.00;3.63;;;22.50;99.90;;;;;;1914126;73;25290;-88
2023/08/15 10:47:52;;;;;;;8.17;3.60;;;22.40;99.90;;;;;;1881521;75;25327;-88
2023/08/15 10:50:47;;;;;;;5.63;3.33;;;22.30;99.90;;;;;;1875127;76;25311;-89
2023/08/15 10:53:36;;;;;;;9.97;3.67;;;22.20;99.90;;;;;;1867478;76;25288;-88
2023/08/15 10:56:28;;;;;;;11.70;4.47;;;21.90;99.90;;;;;;1860894;76;25290;-88
2023/08/15 10:59:18;;;;;;;7.27;3.60;;;21.70;99.90;;;;;;1840579;76;25379;-88
2023/08/15 11:02:07;;;;;;;8.53;3.90;;;21.60;99.90;;;;;;1849430;76;25206;-88
2023/08/15 11:04:57;;;;;;;7.60;3.83;;;21.60;99.90;;;;;;1921216;73;25187;-88
2023/08/15 11:07:45;;;;;;;6.93;3.50;;;21.70;99.90;;;;;;1915574;73;25292;-88
2023/08/15 11:10:34;;;;;;;8.70;3.60;;;21.70;99.90;;;;;;1916169;73;25789;-89
2023/08/15 11:13:23;;;;;;;16.67;4.10;;;21.60;99.90;;;;;;1924705;73;25346;-89
2023/08/15 11:19:31;;;;;;;9.10;3.80;;;21.50;99.90;;;;;;1948052;72;28631;-88
2023/08/15 11:25:00;;;;;;;8.97;3.50;;;21.30;99.90;;;;;;1948496;72;27460;-89
2023/08/15 11:27:50;;;;;;;10.10;3.90;;;21.30;99.90;;;;;;1930791;73;25363;-89
2023/08/15 11:30:38;;;;;;;9.30;4.10;;;21.20;99.90;;;;;;1932747;73;25251;-88
2023/08/15 11:33:30;;;;;;;14.47;4.73;;;21.30;99.90;;;;;;1925417;73;25150;-88
2023/08/15 11:36:19;;;;;;;12.53;5.37;;;21.30;99.90;;;;;;1915467;73;25212;-88
2023/08/15 11:41:55;;;;;;;11.23;5.17;;;20.80;99.90;;;;;;1913669;72;27183;-89
2023/08/15 11:44:44;;;;;;;10.03;4.90;;;20.30;99.90;;;;;;1855232;75;25770;-88
2023/08/15 12:21:35;;;;;;;11.80;5.20;;;20.40;99.90;;;;;;1847018;76;25311;-88
2023/08/15 12:24:24;;;;;;;10.13;4.90;;;20.10;99.90;;;;;;1840070;76;25236;-88
2023/08/15 12:32:48;;;;;;;9.77;5.10;;;19.90;99.90;;;;;;1972052;71;26633;-88
2023/08/15 12:38:37;;;;;;;9.37;5.40;;;19.10;99.90;;;;;;1951058;71;26991;-89
2023/08/15 12:55:26;;;;;;;12.20;6.30;;;18.90;99.90;;;;;;1928993;72;26949;-89
2023/08/15 13:01:14;;;;;;;8.63;5.30;;;18.30;99.90;;;;;;1947973;72;26817;-89
2023/08/15 13:04:03;;;;;;;13.23;5.10;;;18.30;99.90;;;;;;1940811;73;25303;-89
2023/08/15 13:06:52;;;;;;;8.73;4.90;;;18.20;99.90;;;;;;1934592;73;25207;-89
2023/08/15 13:09:41;;;;;;;9.27;4.63;;;18.00;99.90;;;;;;1932658;73;25211;-89
2023/08/15 13:12:30;;;;;;;9.07;4.87;;;17.90;99.90;;;;;;1925347;72;25229;-88
2023/08/15 13:15:18;;;;;;;7.63;4.50;;;17.90;99.90;;;;;;1932322;72;25370;-88
2023/08/15 13:18:07;;;;;;;7.60;4.87;;;17.80;99.90;;;;;;1929581;72;25295;-88
2023/08/15 13:20:56;;;;;;;10.10;4.87;;;17.80;99.90;;;;;;1930543;73;25306;-88
2023/08/15 13:23:44;;;;;;;6.83;4.77;;;17.80;99.90;;;;;;1926340;72;25234;-89
2023/08/15 13:26:33;;;;;;;10.97;5.60;;;17.70;99.90;;;;;;1924850;72;25329;-89
2023/08/15 13:29:42;;;;;;;11.67;4.90;;;17.80;99.90;;;;;;1925737;73;25701;-89
2023/08/15 13:32:35;;;;;;;14.17;5.47;;;17.90;99.90;;;;;;1917826;72;25357;-90
2023/08/15 13:36:16;;;;;;;8.57;5.43;;;18.10;99.90;;;;;;1917658;73;25201;-89
2023/08/15 14:05:44;;;;;;;13.30;6.30;;;17.80;99.90;;;;;;1859231;75;27147;-88
2023/08/15 14:11:19;;;;;;;15.97;7.70;;;17.90;99.90;;;;;;1989808;71;27045;-88
2023/08/15 14:14:08;;;;;;;12.63;6.73;;;17.80;99.90;;;;;;1948993;72;25184;-88
2023/08/15 14:19:37;;;;;;;10.43;6.03;;;17.90;99.90;;;;;;1926678;72;27852;-88
2023/08/15 14:22:26;;;;;;;11.07;6.47;;;17.90;99.90;;;;;;1898800;75;25635;-88
2023/08/15 15:09:15;;;;;;;11.13;6.67;;;18.30;99.90;;;;;;1866318;75;27081;-88
2023/08/15 15:15:00;;;;;;;8.20;6.33;;;18.50;99.90;;;;;;1947875;72;27036;-88
2023/08/15 15:17:48;;;;;;;10.17;6.27;;;18.50;99.90;;;;;;1927373;73;25162;-88
2023/08/15 15:20:37;;;;;;;9.73;6.20;;;18.50;99.90;;;;;;1930933;73;25184;-88
2023/08/15 15:23:25;;;;;;;10.43;5.83;;;18.60;99.90;;;;;;1936359;73;25756;-88
2023/08/15 15:30:13;;;;;;;8.97;6.17;;;18.40;99.90;;;;;;1941221;72;25770;-88
2023/08/15 15:33:03;;;;;;;10.20;5.70;;;18.40;99.90;;;;;;1902830;73;25782;-88
2023/08/15 15:35:56;;;;;;;8.83;5.40;;;18.40;99.90;;;;;;1926302;72;25689;-88
2023/08/15 15:39:20;;;;;;;8.83;5.60;;;18.30;99.90;;;;;;1936802;72;25787;-88
2023/08/15 15:42:13;;;;;;;10.13;5.90;;;18.30;99.90;;;;;;1924813;73;25242;-88
2023/08/15 15:45:03;;;;;;;8.83;6.00;;;18.30;99.90;;;;;;1901299;74;25162;-88
2023/08/15 15:48:03;;;;;;;9.73;6.50;;;18.40;99.90;;;;;;1868459;75;25245;-89
2023/08/15 15:58:31;;;;;;;6.93;5.33;;;18.70;99.90;;;;;;1881830;75;25301;-89
2023/08/15 16:04:38;;;;;;;12.97;5.63;;;19.20;99.90;;;;;;1967429;72;29566;-88
2023/08/15 16:12:46;;;;;;;10.10;4.40;;;19.40;99.90;;;;;;1979619;71;26598;-88
2023/08/15 16:15:39;;;;;;;7.00;4.67;;;19.70;99.90;;;;;;1955185;72;25689;-88
2023/08/15 16:18:38;;;;;;;7.53;4.17;;;19.80;99.90;;;;;;1962260;71;25303;-88
2023/08/15 16:21:27;;;;;;;5.10;3.70;;;19.90;99.90;;;;;;1942953;72;25247;-88
2023/08/15 16:24:21;;;;;;;6.03;3.50;;;20.10;99.90;;;;;;2052287;69;25203;-88
2023/08/15 16:27:15;;;;;;;6.80;3.97;;;20.20;99.90;;;;;;2032674;69;25264;-88
2023/08/15 16:30:28;;;;;;;12.23;3.80;;;20.20;99.90;;;;;;2037201;69;25208;-88
2023/08/15 16:33:38;;;;;;;5.97;3.67;;;20.40;99.90;;;;;;2053426;69;25220;-88
2023/08/15 16:36:32;;;;;;;8.13;4.10;;;20.30;99.90;;;;;;2024207;69;25253;-88
2023/08/15 16:39:23;;;;;;;4.20;3.80;;;20.30;99.90;;;;;;2041593;69;25227;-88
2023/08/15 16:42:24;;;;;;;6.33;4.13;;;20.40;99.90;;;;;;2030878;69;25702;-88
2023/08/15 16:48:10;;;;;;;9.03;3.80;;;20.60;99.90;;;;;;1961246;72;26944;-89
2023/08/15 16:50:59;;;;;;;6.87;3.97;;;20.60;99.90;;;;;;1934700;73;25230;-88
2023/08/15 16:53:50;;;;;;;4.47;3.97;;;20.60;99.90;;;;;;1944787;72;25211;-89
2023/08/15 16:56:39;;;;;;;7.97;4.50;;;20.50;99.90;;;;;;1945376;73;25292;-89
2023/08/15 16:59:33;;;;;;;5.90;4.03;;;20.40;99.90;;;;;;1925259;73;25237;-89
2023/08/15 17:02:22;;;;;;;7.47;4.03;;;20.30;99.90;;;;;;1933140;73;25224;-89
2023/08/15 17:05:12;;;;;;;7.47;4.33;;;20.10;99.90;;;;;;1902910;75;25730;-89
2023/08/15 17:08:02;;;;;;;7.37;4.37;;;20.10;99.90;;;;;;1879168;76;25647;-89
2023/08/15 17:16:39;;;;;;;8.20;4.70;;;20.50;99.90;;;;;;1992473;71;26121;-88
2023/08/15 17:19:32;;;;;;;8.03;5.00;;;20.30;99.90;;;;;;2017673;70;25268;-89
2023/08/15 17:22:25;;;;;;;6.43;4.60;;;20.20;99.90;;;;;;2010678;70;25862;-89
2023/08/15 17:25:16;;;;;;;13.37;5.33;;;20.00;99.90;;;;;;1991664;70;25170;-88
2023/08/15 17:28:06;;;;;;;10.30;5.40;;;20.00;99.90;;;;;;2023106;70;25610;-88
2023/08/15 17:30:55;;;;;;;11.93;5.10;;;20.00;99.90;;;;;;1994396;70;25200;-89
2023/08/15 17:33:45;;;;;;;9.20;5.83;;;20.00;99.90;;;;;;2015956;70;25147;-88
2023/08/15 17:36:36;;;;;;;8.60;5.50;;;19.90;99.90;;;;;;2001834;70;25686;-88
2023/08/15 17:39:26;;;;;;;8.10;5.47;;;19.90;99.90;;;;;;2019016;70;25198;-88
2023/08/15 17:42:16;;;;;;;9.20;5.63;;;19.90;99.90;;;;;;2024390;70;25236;-88
2023/08/15 17:45:06;;;;;;;8.87;5.33;;;19.90;99.90;;;;;;2034913;69;25237;-88
2023/08/15 17:50:55;;;;;;;12.57;6.50;;;19.90;99.90;;;;;;1965983;72;27686;-88
2023/08/15 17:53:48;;;;;;;11.83;6.77;;;19.80;99.90;;;;;;1946799;73;25318;-88
2023/08/15 17:56:39;;;;;;;9.30;6.30;;;19.80;99.90;;;;;;1889254;73;25228;-88
2023/08/15 18:02:25;;;;;;;12.70;7.03;;;19.70;99.90;;;;;;1935427;72;28278;-88
2023/08/15 18:08:05;;;;;;;13.23;7.13;;;19.60;99.90;;;;;;1949986;72;27098;-89
2023/08/15 18:11:16;;;;;;;14.27;7.50;;;19.50;99.90;;;;;;1918532;73;25252;-89
2023/08/15 18:14:06;;;;;;;13.83;7.50;;;19.50;99.90;;;;;;1924115;73;25802;-89
2023/08/15 18:16:57;;;;;;;11.20;6.80;;;19.40;99.90;;;;;;1923776;73;25173;-88
2023/08/15 18:19:48;;;;;;;11.43;7.63;;;19.30;99.90;;;;;;1917109;73;25186;-89
2023/08/15 18:22:42;;;;;;;12.17;8.30;;;19.20;99.90;;;;;;1923620;73;25253;-88
2023/08/15 18:25:34;;;;;;;19.57;8.43;;;19.10;99.90;;;;;;1903832;73;25617;-88
2023/08/15 18:28:25;;;;;;;23.07;8.77;;;19.10;99.90;;;;;;1877588;75;25232;-88
2023/08/15 18:31:23;;;;;;;17.67;8.77;;;18.90;99.90;;;;;;1880166;73;25279;-88
2023/08/15 18:34:17;;;;;;;13.73;9.17;;;18.90;99.90;;;;;;1922428;73;26582;-88
2023/08/15 18:37:09;;;;;;;14.13;8.93;;;18.80;99.90;;;;;;1925451;73;25814;-89
2023/08/15 18:40:09;;;;;;;19.67;9.93;;;18.80;99.90;;;;;;1892934;75;25337;-89
2023/08/15 18:43:03;;;;;;;20.10;10.17;;;18.70;99.90;;;;;;1923192;74;25740;-89
2023/08/15 18:45:53;;;;;;;16.67;10.13;;;18.60;99.90;;;;;;1922912;74;25218;-89
2023/08/15 18:48:48;;;;;;;19.63;10.53;;;18.60;99.90;;;;;;1868510;75;25876;-89
2023/08/15 18:51:50;;;;;;;23.20;10.57;;;18.50;99.90;;;;;;1859820;75;25665;-88
2023/08/15 18:57:46;;;;;;;16.23;11.63;;;18.30;99.90;;;;;;1950793;72;27620;-89
2023/08/15 19:00:40;;;;;;;19.63;11.77;;;18.30;99.90;;;;;;1905399;73;25244;-89
2023/08/15 19:03:43;;;;;;;17.70;11.77;;;18.30;99.90;;;;;;1923135;73;25741;-89
2023/08/15 19:06:47;;;;;;;20.37;12.40;;;18.20;99.90;;;;;;1910107;73;25256;-88
2023/08/15 19:09:55;;;;;;;25.80;12.47;;;18.20;99.90;;;;;;1902567;73;26618;-89
2023/08/15 19:16:03;;;;;;;22.20;12.53;;;18.10;99.90;;;;;;1916939;73;25194;-89
2023/08/15 19:19:12;;;;;;;26.10;12.63;;;18.00;99.90;;;;;;1916531;74;25201;-88
2023/08/15 19:22:39;;;;;;;20.67;13.10;;;18.00;99.90;;;;;;1916393;73;25903;-89
2023/08/15 19:25:52;;;;;;;24.47;13.53;;;18.00;99.90;;;;;;1886655;75;25709;-88
2023/08/15 19:28:57;;;;;;;24.80;13.13;;;18.00;99.90;;;;;;1904322;73;25650;-88
2023/08/15 19:31:52;;;;;;;23.63;12.63;;;17.90;99.90;;;;;;1888744;73;25650;-88
2023/08/15 19:35:09;;;;;;;22.23;14.30;;;17.90;99.90;;;;;;1924845;73;25258;-88
2023/08/15 19:45:44;;;;;;;27.63;15.03;;;17.90;99.90;;;;;;1948615;72;25764;-89
2023/08/15 19:48:34;;;;;;;26.80;15.53;;;17.90;99.90;;;;;;2009025;70;25253;-89
2023/08/15 19:57:17;;;;;;;32.57;19.27;;;17.80;99.90;;;;;;1981410;71;27053;-89
2023/08/15 20:00:17;;;;;;;39.13;19.03;;;17.80;99.90;;;;;;1930980;72;25178;-89
2023/08/15 20:03:21;;;;;;;29.53;18.47;;;17.80;99.90;;;;;;2040110;69;25136;-88
2023/08/15 20:06:33;;;;;;;31.80;18.27;;;17.80;99.90;;;;;;2039669;69;25166;-89
2023/08/15 20:10:05;;;;;;;35.27;19.33;;;17.80;99.90;;;;;;2042810;69;25627;-89
2023/08/15 20:13:21;;;;;;;29.10;18.70;;;17.90;99.90;;;;;;2037836;69;25590;-89
